sensor_id;sensor_type;location;lat;lon;timestamp;temperature;humidity
36652;DHT22;53334;51.976;20.144;2024-03-06T00:02:03;26.20;42.40
36652;DHT22;53334;51.976;20.144;2024-03-06T00:04:36;26.20;42.40
36652;DHT22;53334;51.976;20.144;2024-03-06T00:07:10;26.20;42.40
36652;DHT22;53334;51.976;20.144;2024-03-06T00:09:44;26.20;42.40
36652;DHT22;53334;51.976;20.144;2024-03-06T00:12:18;26.20;42.40
36652;DHT22;53334;51.976;20.144;2024-03-06T00:14:52;26.20;42.40
36652;DHT22;53334;51.976;20.144;2024-03-06T00:17:25;26.20;43.00
36652;DHT22;53334;51.976;20.144;2024-03-06T00:19:59;26.20;42.40
36652;DHT22;53334;51.976;20.144;2024-03-06T00:22:32;26.20;42.40
36652;DHT22;53334;51.976;20.144;2024-03-06T00:25:06;26.20;42.30
36652;DHT22;53334;51.976;20.144;2024-03-06T00:27:41;26.20;42.40
36652;DHT22;53334;51.976;20.144;2024-03-06T00:30:15;26.20;42.30
36652;DHT22;53334;51.976;20.144;2024-03-06T00:32:48;26.20;42.30
36652;DHT22;53334;51.976;20.144;2024-03-06T00:35:21;26.20;42.30
36652;DHT22;53334;51.976;20.144;2024-03-06T00:37:54;26.20;42.30
36652;DHT22;53334;51.976;20.144;2024-03-06T00:40:27;26.20;42.30
36652;DHT22;53334;51.976;20.144;2024-03-06T00:43:04;26.20;42.40
36652;DHT22;53334;51.976;20.144;2024-03-06T00:45:37;26.20;42.30
36652;DHT22;53334;51.976;20.144;2024-03-06T00:48:10;26.20;42.30
36652;DHT22;53334;51.976;20.144;2024-03-06T00:50:43;26.20;42.30
36652;DHT22;53334;51.976;20.144;2024-03-06T00:53:16;26.20;42.40
36652;DHT22;53334;51.976;20.144;2024-03-06T00:55:53;26.20;42.60
36652;DHT22;53334;51.976;20.144;2024-03-06T00:58:27;26.20;42.70
36652;DHT22;53334;51.976;20.144;2024-03-06T01:01:00;26.20;43.00
36652;DHT22;53334;51.976;20.144;2024-03-06T01:03:34;26.20;43.10
36652;DHT22;53334;51.976;20.144;2024-03-06T01:06:07;26.20;43.30
36652;DHT22;53334;51.976;20.144;2024-03-06T01:08:40;26.20;43.50
36652;DHT22;53334;51.976;20.144;2024-03-06T01:11:14;26.30;43.80
36652;DHT22;53334;51.976;20.144;2024-03-06T01:13:48;26.30;44.00
36652;DHT22;53334;51.976;20.144;2024-03-06T01:16:22;26.30;44.30
36652;DHT22;53334;51.976;20.144;2024-03-06T01:18:55;26.20;44.40
36652;DHT22;53334;51.976;20.144;2024-03-06T01:21:28;26.30;44.70
36652;DHT22;53334;51.976;20.144;2024-03-06T01:24:02;26.30;44.90
36652;DHT22;53334;51.976;20.144;2024-03-06T01:26:35;26.30;45.00
36652;DHT22;53334;51.976;20.144;2024-03-06T01:29:09;26.30;45.60
36652;DHT22;53334;51.976;20.144;2024-03-06T01:31:43;26.30;45.20
36652;DHT22;53334;51.976;20.144;2024-03-06T01:34:18;26.30;45.30
36652;DHT22;53334;51.976;20.144;2024-03-06T01:36:52;26.30;45.40
36652;DHT22;53334;51.976;20.144;2024-03-06T01:39:25;26.30;45.40
36652;DHT22;53334;51.976;20.144;2024-03-06T01:41:58;26.40;45.50
36652;DHT22;53334;51.976;20.144;2024-03-06T01:44:33;26.40;45.50
36652;DHT22;53334;51.976;20.144;2024-03-06T01:47:06;26.40;45.50
36652;DHT22;53334;51.976;20.144;2024-03-06T01:49:40;26.40;45.50
36652;DHT22;53334;51.976;20.144;2024-03-06T01:52:17;26.40;45.60
36652;DHT22;53334;51.976;20.144;2024-03-06T01:54:52;26.30;45.50
36652;DHT22;53334;51.976;20.144;2024-03-06T01:57:26;26.30;45.50
36652;DHT22;53334;51.976;20.144;2024-03-06T02:00:00;26.30;45.60
36652;DHT22;53334;51.976;20.144;2024-03-06T02:02:35;26.30;45.50
36652;DHT22;53334;51.976;20.144;2024-03-06T02:05:09;26.30;45.50
36652;DHT22;53334;51.976;20.144;2024-03-06T02:07:43;26.40;45.50
36652;DHT22;53334;51.976;20.144;2024-03-06T02:10:17;26.30;46.00
36652;DHT22;53334;51.976;20.144;2024-03-06T02:12:51;26.30;45.50
36652;DHT22;53334;51.976;20.144;2024-03-06T02:15:26;26.30;45.50
36652;DHT22;53334;51.976;20.144;2024-03-06T02:18:04;26.30;45.60
36652;DHT22;53334;51.976;20.144;2024-03-06T02:20:39;26.30;45.80
36652;DHT22;53334;51.976;20.144;2024-03-06T02:23:13;26.30;45.90
36652;DHT22;53334;51.976;20.144;2024-03-06T02:25:46;26.40;46.10
36652;DHT22;53334;51.976;20.144;2024-03-06T02:28:20;26.30;46.40
36652;DHT22;53334;51.976;20.144;2024-03-06T02:30:53;26.30;46.30
36652;DHT22;53334;51.976;20.144;2024-03-06T02:33:26;26.30;46.40
36652;DHT22;53334;51.976;20.144;2024-03-06T02:36:01;26.30;46.40
36652;DHT22;53334;51.976;20.144;2024-03-06T02:38:34;26.30;46.50
36652;DHT22;53334;51.976;20.144;2024-03-06T02:41:08;26.30;46.60
36652;DHT22;53334;51.976;20.144;2024-03-06T02:43:41;26.30;46.80
36652;DHT22;53334;51.976;20.144;2024-03-06T02:46:15;26.30;47.10
36652;DHT22;53334;51.976;20.144;2024-03-06T02:48:48;26.30;47.30
36652;DHT22;53334;51.976;20.144;2024-03-06T02:51:23;26.30;47.40
36652;DHT22;53334;51.976;20.144;2024-03-06T02:53:56;26.40;47.60
36652;DHT22;53334;51.976;20.144;2024-03-06T02:56:30;26.40;47.50
36652;DHT22;53334;51.976;20.144;2024-03-06T02:59:03;26.40;47.50
36652;DHT22;53334;51.976;20.144;2024-03-06T03:01:36;26.40;47.40
36652;DHT22;53334;51.976;20.144;2024-03-06T03:04:11;26.40;47.30
36652;DHT22;53334;51.976;20.144;2024-03-06T03:06:45;26.40;47.30
36652;DHT22;53334;51.976;20.144;2024-03-06T03:09:18;26.40;47.50
36652;DHT22;53334;51.976;20.144;2024-03-06T03:11:52;26.40;47.50
36652;DHT22;53334;51.976;20.144;2024-03-06T03:14:25;26.40;47.40
36652;DHT22;53334;51.976;20.144;2024-03-06T03:16:59;26.40;47.50
36652;DHT22;53334;51.976;20.144;2024-03-06T03:19:33;26.40;47.50
36652;DHT22;53334;51.976;20.144;2024-03-06T03:22:08;26.40;47.50
36652;DHT22;53334;51.976;20.144;2024-03-06T03:24:42;26.40;47.60
36652;DHT22;53334;51.976;20.144;2024-03-06T03:27:15;26.40;47.60
36652;DHT22;53334;51.976;20.144;2024-03-06T03:29:48;26.40;47.50
36652;DHT22;53334;51.976;20.144;2024-03-06T03:32:21;26.40;47.50
36652;DHT22;53334;51.976;20.144;2024-03-06T03:34:55;26.40;47.50
36652;DHT22;53334;51.976;20.144;2024-03-06T03:37:29;26.40;47.50
36652;DHT22;53334;51.976;20.144;2024-03-06T03:40:03;26.40;47.40
36652;DHT22;53334;51.976;20.144;2024-03-06T03:42:36;26.40;47.50
36652;DHT22;53334;51.976;20.144;2024-03-06T03:45:09;26.40;47.50
36652;DHT22;53334;51.976;20.144;2024-03-06T03:47:43;26.40;47.90
36652;DHT22;53334;51.976;20.144;2024-03-06T03:50:16;26.40;47.40
36652;DHT22;53334;51.976;20.144;2024-03-06T03:52:50;26.40;47.40
36652;DHT22;53334;51.976;20.144;2024-03-06T03:55:24;26.30;47.20
36652;DHT22;53334;51.976;20.144;2024-03-06T03:57:57;26.40;47.20
36652;DHT22;53334;51.976;20.144;2024-03-06T04:00:30;26.40;47.30
36652;DHT22;53334;51.976;20.144;2024-03-06T04:03:04;26.40;47.10
36652;DHT22;53334;51.976;20.144;2024-03-06T04:05:37;26.30;47.10
36652;DHT22;53334;51.976;20.144;2024-03-06T04:08:12;26.30;47.00
36652;DHT22;53334;51.976;20.144;2024-03-06T04:10:45;26.40;47.10
36652;DHT22;53334;51.976;20.144;2024-03-06T04:13:18;26.40;47.10
36652;DHT22;53334;51.976;20.144;2024-03-06T04:15:53;26.40;47.10
36652;DHT22;53334;51.976;20.144;2024-03-06T04:18:26;26.40;47.00
36652;DHT22;53334;51.976;20.144;2024-03-06T04:20:59;26.40;46.90
36652;DHT22;53334;51.976;20.144;2024-03-06T04:23:33;26.40;46.90
36652;DHT22;53334;51.976;20.144;2024-03-06T04:26:07;26.40;46.80
36652;DHT22;53334;51.976;20.144;2024-03-06T04:28:40;26.40;46.70
36652;DHT22;53334;51.976;20.144;2024-03-06T04:31:14;26.40;46.70
36652;DHT22;53334;51.976;20.144;2024-03-06T04:33:47;26.40;46.60
36652;DHT22;53334;51.976;20.144;2024-03-06T04:36:20;26.40;46.60
36652;DHT22;53334;51.976;20.144;2024-03-06T04:38:55;26.40;46.50
36652;DHT22;53334;51.976;20.144;2024-03-06T04:41:28;26.40;46.40
36652;DHT22;53334;51.976;20.144;2024-03-06T04:44:01;26.30;46.30
36652;DHT22;53334;51.976;20.144;2024-03-06T04:46:34;26.40;46.30
36652;DHT22;53334;51.976;20.144;2024-03-06T04:49:07;26.40;46.20
36652;DHT22;53334;51.976;20.144;2024-03-06T04:51:40;26.30;46.20
36652;DHT22;53334;51.976;20.144;2024-03-06T04:54:15;26.30;46.20
36652;DHT22;53334;51.976;20.144;2024-03-06T04:56:48;26.30;46.10
36652;DHT22;53334;51.976;20.144;2024-03-06T04:59:21;26.30;46.10
36652;DHT22;53334;51.976;20.144;2024-03-06T05:01:55;26.30;46.10
36652;DHT22;53334;51.976;20.144;2024-03-06T05:04:28;26.30;46.00
36652;DHT22;53334;51.976;20.144;2024-03-06T05:07:19;26.30;46.00
36652;DHT22;53334;51.976;20.144;2024-03-06T05:10:11;26.30;46.00
36652;DHT22;53334;51.976;20.144;2024-03-06T05:13:01;26.30;46.00
36652;DHT22;53334;51.976;20.144;2024-03-06T05:15:52;26.30;46.00
36652;DHT22;53334;51.976;20.144;2024-03-06T05:18:43;26.30;46.00
36652;DHT22;53334;51.976;20.144;2024-03-06T05:21:34;26.30;46.10
36652;DHT22;53334;51.976;20.144;2024-03-06T05:24:25;26.30;45.90
36652;DHT22;53334;51.976;20.144;2024-03-06T05:27:17;26.30;45.80
36652;DHT22;53334;51.976;20.144;2024-03-06T05:30:08;26.30;45.80
36652;DHT22;53334;51.976;20.144;2024-03-06T05:32:58;26.30;45.80
36652;DHT22;53334;51.976;20.144;2024-03-06T05:35:49;26.30;45.70
36652;DHT22;53334;51.976;20.144;2024-03-06T05:38:40;26.30;45.70
36652;DHT22;53334;51.976;20.144;2024-03-06T05:41:30;26.30;45.70
36652;DHT22;53334;51.976;20.144;2024-03-06T05:44:22;26.30;46.20
36652;DHT22;53334;51.976;20.144;2024-03-06T05:47:13;26.30;46.30
36652;DHT22;53334;51.976;20.144;2024-03-06T05:50:04;26.30;45.70
36652;DHT22;53334;51.976;20.144;2024-03-06T05:52:55;26.30;45.70
36652;DHT22;53334;51.976;20.144;2024-03-06T05:55:46;26.30;45.70
36652;DHT22;53334;51.976;20.144;2024-03-06T05:58:36;26.30;45.70
36652;DHT22;53334;51.976;20.144;2024-03-06T06:01:11;26.30;45.70
36652;DHT22;53334;51.976;20.144;2024-03-06T06:03:45;26.30;45.70
36652;DHT22;53334;51.976;20.144;2024-03-06T06:06:19;26.30;45.70
36652;DHT22;53334;51.976;20.144;2024-03-06T06:08:52;26.30;45.60
36652;DHT22;53334;51.976;20.144;2024-03-06T06:11:25;26.20;45.50
36652;DHT22;53334;51.976;20.144;2024-03-06T06:13:58;26.30;45.50
36652;DHT22;53334;51.976;20.144;2024-03-06T06:16:36;26.30;45.50
36652;DHT22;53334;51.976;20.144;2024-03-06T06:19:10;26.20;45.40
36652;DHT22;53334;51.976;20.144;2024-03-06T06:21:43;26.30;45.40
36652;DHT22;53334;51.976;20.144;2024-03-06T06:24:16;26.30;45.40
36652;DHT22;53334;51.976;20.144;2024-03-06T06:26:49;26.30;45.40
36652;DHT22;53334;51.976;20.144;2024-03-06T06:29:23;26.30;45.40
36652;DHT22;53334;51.976;20.144;2024-03-06T06:31:58;26.30;45.40
36652;DHT22;53334;51.976;20.144;2024-03-06T06:34:31;26.30;45.30
36652;DHT22;53334;51.976;20.144;2024-03-06T06:37:04;26.30;45.30
36652;DHT22;53334;51.976;20.144;2024-03-06T06:39:37;26.30;45.30
36652;DHT22;53334;51.976;20.144;2024-03-06T06:42:10;26.30;45.30
36652;DHT22;53334;51.976;20.144;2024-03-06T06:44:44;26.30;45.30
36652;DHT22;53334;51.976;20.144;2024-03-06T06:47:18;26.30;45.30
36652;DHT22;53334;51.976;20.144;2024-03-06T06:49:52;26.20;45.30
36652;DHT22;53334;51.976;20.144;2024-03-06T06:52:25;26.30;45.30
36652;DHT22;53334;51.976;20.144;2024-03-06T06:55:00;26.30;45.30
36652;DHT22;53334;51.976;20.144;2024-03-06T06:57:33;26.30;45.30
36652;DHT22;53334;51.976;20.144;2024-03-06T07:00:07;26.30;45.30
36652;DHT22;53334;51.976;20.144;2024-03-06T07:02:45;26.20;45.30
36652;DHT22;53334;51.976;20.144;2024-03-06T07:05:18;26.30;45.30
36652;DHT22;53334;51.976;20.144;2024-03-06T07:07:52;26.30;45.30
36652;DHT22;53334;51.976;20.144;2024-03-06T07:10:26;26.20;45.20
36652;DHT22;53334;51.976;20.144;2024-03-06T07:12:59;26.30;45.40
36652;DHT22;53334;51.976;20.144;2024-03-06T07:15:34;26.30;46.00
36652;DHT22;53334;51.976;20.144;2024-03-06T07:18:08;26.30;45.90
36652;DHT22;53334;51.976;20.144;2024-03-06T07:20:41;26.30;45.80
36652;DHT22;53334;51.976;20.144;2024-03-06T07:23:15;26.30;45.80
36652;DHT22;53334;51.976;20.144;2024-03-06T07:25:48;26.30;45.80
36652;DHT22;53334;51.976;20.144;2024-03-06T07:28:23;26.30;45.70
36652;DHT22;53334;51.976;20.144;2024-03-06T07:30:57;26.20;45.80
36652;DHT22;53334;51.976;20.144;2024-03-06T07:33:32;26.30;46.00
36652;DHT22;53334;51.976;20.144;2024-03-06T07:36:09;26.30;45.90
36652;DHT22;53334;51.976;20.144;2024-03-06T07:38:43;26.20;45.80
36652;DHT22;53334;51.976;20.144;2024-03-06T07:41:16;26.30;45.80
36652;DHT22;53334;51.976;20.144;2024-03-06T07:43:49;26.20;45.70
36652;DHT22;53334;51.976;20.144;2024-03-06T07:46:22;26.20;45.60
36652;DHT22;53334;51.976;20.144;2024-03-06T07:48:57;26.20;45.60
36652;DHT22;53334;51.976;20.144;2024-03-06T07:51:30;26.20;43.90
36652;DHT22;53334;51.976;20.144;2024-03-06T07:54:04;26.20;38.90
36652;DHT22;53334;51.976;20.144;2024-03-06T07:56:37;26.20;36.50
36652;DHT22;53334;51.976;20.144;2024-03-06T07:59:11;26.10;36.10
36652;DHT22;53334;51.976;20.144;2024-03-06T08:01:44;26.00;37.50
36652;DHT22;53334;51.976;20.144;2024-03-06T08:04:19;26.00;38.80
36652;DHT22;53334;51.976;20.144;2024-03-06T08:06:52;25.90;38.40
36652;DHT22;53334;51.976;20.144;2024-03-06T08:09:25;25.90;38.70
36652;DHT22;53334;51.976;20.144;2024-03-06T08:12:00;25.90;38.60
36652;DHT22;53334;51.976;20.144;2024-03-06T08:14:34;25.90;38.60
36652;DHT22;53334;51.976;20.144;2024-03-06T08:17:07;25.90;38.60
36652;DHT22;53334;51.976;20.144;2024-03-06T08:19:42;25.90;38.80
36652;DHT22;53334;51.976;20.144;2024-03-06T08:22:15;25.90;38.80
36652;DHT22;53334;51.976;20.144;2024-03-06T08:24:48;25.90;39.10
36652;DHT22;53334;51.976;20.144;2024-03-06T08:27:21;25.90;39.20
36652;DHT22;53334;51.976;20.144;2024-03-06T08:29:55;26.00;39.30
36652;DHT22;53334;51.976;20.144;2024-03-06T08:32:28;25.90;39.30
36652;DHT22;53334;51.976;20.144;2024-03-06T08:35:04;25.90;39.60
36652;DHT22;53334;51.976;20.144;2024-03-06T08:37:37;25.90;39.60
36652;DHT22;53334;51.976;20.144;2024-03-06T08:40:11;26.00;39.70
36652;DHT22;53334;51.976;20.144;2024-03-06T08:42:47;26.00;40.10
36652;DHT22;53334;51.976;20.144;2024-03-06T08:45:21;26.00;40.30
36652;DHT22;53334;51.976;20.144;2024-03-06T08:47:55;26.00;40.40
36652;DHT22;53334;51.976;20.144;2024-03-06T08:50:30;26.00;40.50
36652;DHT22;53334;51.976;20.144;2024-03-06T08:53:04;26.00;40.70
36652;DHT22;53334;51.976;20.144;2024-03-06T08:55:37;26.00;40.80
36652;DHT22;53334;51.976;20.144;2024-03-06T08:58:10;26.00;40.90
36652;DHT22;53334;51.976;20.144;2024-03-06T09:00:45;26.00;41.00
36652;DHT22;53334;51.976;20.144;2024-03-06T09:03:20;26.00;41.10
36652;DHT22;53334;51.976;20.144;2024-03-06T09:05:54;26.00;41.20
36652;DHT22;53334;51.976;20.144;2024-03-06T09:08:28;26.00;41.20
36652;DHT22;53334;51.976;20.144;2024-03-06T09:11:02;26.00;41.30
36652;DHT22;53334;51.976;20.144;2024-03-06T09:13:35;26.00;41.40
36652;DHT22;53334;51.976;20.144;2024-03-06T09:16:09;26.00;41.40
36652;DHT22;53334;51.976;20.144;2024-03-06T09:18:42;26.00;41.50
36652;DHT22;53334;51.976;20.144;2024-03-06T09:21:16;26.00;41.50
36652;DHT22;53334;51.976;20.144;2024-03-06T09:23:50;26.00;41.50
36652;DHT22;53334;51.976;20.144;2024-03-06T09:26:23;26.00;41.50
36652;DHT22;53334;51.976;20.144;2024-03-06T09:28:56;26.00;41.60
36652;DHT22;53334;51.976;20.144;2024-03-06T09:31:30;26.00;41.70
36652;DHT22;53334;51.976;20.144;2024-03-06T09:34:03;26.00;41.60
36652;DHT22;53334;51.976;20.144;2024-03-06T09:36:38;26.00;41.60
36652;DHT22;53334;51.976;20.144;2024-03-06T09:39:11;26.00;41.60
36652;DHT22;53334;51.976;20.144;2024-03-06T09:41:44;26.00;41.60
36652;DHT22;53334;51.976;20.144;2024-03-06T09:44:18;26.00;41.60
36652;DHT22;53334;51.976;20.144;2024-03-06T09:46:52;26.00;41.80
36652;DHT22;53334;51.976;20.144;2024-03-06T09:49:26;26.00;41.60
36652;DHT22;53334;51.976;20.144;2024-03-06T09:52:02;26.00;41.60
36652;DHT22;53334;51.976;20.144;2024-03-06T09:54:37;26.00;41.50
36652;DHT22;53334;51.976;20.144;2024-03-06T09:57:11;25.90;41.30
36652;DHT22;53334;51.976;20.144;2024-03-06T09:59:47;25.90;41.20
36652;DHT22;53334;51.976;20.144;2024-03-06T10:02:30;25.90;41.10
36652;DHT22;53334;51.976;20.144;2024-03-06T10:05:04;25.90;41.10
36652;DHT22;53334;51.976;20.144;2024-03-06T10:07:39;25.90;41.10
36652;DHT22;53334;51.976;20.144;2024-03-06T10:10:13;25.90;41.10
36652;DHT22;53334;51.976;20.144;2024-03-06T10:12:47;25.90;41.10
36652;DHT22;53334;51.976;20.144;2024-03-06T10:15:21;25.90;41.70
36652;DHT22;53334;51.976;20.144;2024-03-06T10:18:12;25.90;41.10
36652;DHT22;53334;51.976;20.144;2024-03-06T10:20:46;25.90;41.40
36652;DHT22;53334;51.976;20.144;2024-03-06T10:23:21;25.90;41.20
36652;DHT22;53334;51.976;20.144;2024-03-06T10:25:54;25.90;41.40
36652;DHT22;53334;51.976;20.144;2024-03-06T10:28:27;25.90;41.10
36652;DHT22;53334;51.976;20.144;2024-03-06T10:31:04;25.90;41.30
36652;DHT22;53334;51.976;20.144;2024-03-06T10:33:39;25.90;41.30
36652;DHT22;53334;51.976;20.144;2024-03-06T10:36:13;25.90;41.30
36652;DHT22;53334;51.976;20.144;2024-03-06T10:38:49;25.90;41.30
36652;DHT22;53334;51.976;20.144;2024-03-06T10:41:24;25.90;41.30
36652;DHT22;53334;51.976;20.144;2024-03-06T10:43:59;25.90;41.20
36652;DHT22;53334;51.976;20.144;2024-03-06T10:46:35;25.90;41.20
36652;DHT22;53334;51.976;20.144;2024-03-06T10:49:09;25.90;41.70
36652;DHT22;53334;51.976;20.144;2024-03-06T10:51:44;25.90;41.10
36652;DHT22;53334;51.976;20.144;2024-03-06T10:54:21;26.00;40.90
36652;DHT22;53334;51.976;20.144;2024-03-06T10:56:55;25.90;40.80
36652;DHT22;53334;51.976;20.144;2024-03-06T10:59:29;25.90;40.90
36652;DHT22;53334;51.976;20.144;2024-03-06T11:02:03;25.90;41.10
36652;DHT22;53334;51.976;20.144;2024-03-06T11:04:37;25.90;41.00
36652;DHT22;53334;51.976;20.144;2024-03-06T11:07:12;25.90;40.90
36652;DHT22;53334;51.976;20.144;2024-03-06T11:09:48;25.90;40.80
36652;DHT22;53334;51.976;20.144;2024-03-06T11:12:39;25.90;40.70
36652;DHT22;53334;51.976;20.144;2024-03-06T11:15:16;25.90;41.00
36652;DHT22;53334;51.976;20.144;2024-03-06T11:17:49;25.90;40.70
36652;DHT22;53334;51.976;20.144;2024-03-06T11:20:23;25.90;40.70
36652;DHT22;53334;51.976;20.144;2024-03-06T11:23:04;25.90;40.70
36652;DHT22;53334;51.976;20.144;2024-03-06T11:26:03;25.90;40.70
36652;DHT22;53334;51.976;20.144;2024-03-06T11:28:38;25.90;40.80
36652;DHT22;53334;51.976;20.144;2024-03-06T11:31:13;25.90;40.70
36652;DHT22;53334;51.976;20.144;2024-03-06T11:33:53;25.90;40.70
36652;DHT22;53334;51.976;20.144;2024-03-06T11:36:28;25.90;40.60
36652;DHT22;53334;51.976;20.144;2024-03-06T11:39:03;25.90;40.70
36652;DHT22;53334;51.976;20.144;2024-03-06T11:41:49;25.90;40.70
36652;DHT22;53334;51.976;20.144;2024-03-06T11:44:23;26.00;40.90
36652;DHT22;53334;51.976;20.144;2024-03-06T11:46:58;26.00;40.80
36652;DHT22;53334;51.976;20.144;2024-03-06T11:49:32;25.90;40.80
36652;DHT22;53334;51.976;20.144;2024-03-06T11:52:07;26.00;40.90
36652;DHT22;53334;51.976;20.144;2024-03-06T11:54:42;25.90;40.90
36652;DHT22;53334;51.976;20.144;2024-03-06T11:57:17;26.00;41.60
36652;DHT22;53334;51.976;20.144;2024-03-06T11:59:53;25.90;41.20
36652;DHT22;53334;51.976;20.144;2024-03-06T12:02:27;26.00;41.10
36652;DHT22;53334;51.976;20.144;2024-03-06T12:05:02;25.90;41.10
36652;DHT22;53334;51.976;20.144;2024-03-06T12:07:45;25.90;41.10
36652;DHT22;53334;51.976;20.144;2024-03-06T12:10:19;25.90;41.30
36652;DHT22;53334;51.976;20.144;2024-03-06T12:12:53;26.00;41.30
36652;DHT22;53334;51.976;20.144;2024-03-06T12:15:26;26.00;41.40
36652;DHT22;53334;51.976;20.144;2024-03-06T12:18:00;25.90;41.30
36652;DHT22;53334;51.976;20.144;2024-03-06T12:20:33;25.90;41.30
36652;DHT22;53334;51.976;20.144;2024-03-06T12:23:07;26.00;41.40
36652;DHT22;53334;51.976;20.144;2024-03-06T12:25:41;26.00;41.50
36652;DHT22;53334;51.976;20.144;2024-03-06T12:28:30;26.00;41.40
36652;DHT22;53334;51.976;20.144;2024-03-06T12:31:04;26.00;41.50
36652;DHT22;53334;51.976;20.144;2024-03-06T12:33:37;26.00;41.60
36652;DHT22;53334;51.976;20.144;2024-03-06T12:36:10;26.00;41.60
36652;DHT22;53334;51.976;20.144;2024-03-06T12:38:44;26.00;41.70
36652;DHT22;53334;51.976;20.144;2024-03-06T12:41:18;26.00;41.90
36652;DHT22;53334;51.976;20.144;2024-03-06T12:43:55;26.00;42.70
36652;DHT22;53334;51.976;20.144;2024-03-06T12:46:29;26.00;43.50
36652;DHT22;53334;51.976;20.144;2024-03-06T12:49:02;26.10;44.30
36652;DHT22;53334;51.976;20.144;2024-03-06T12:51:36;26.10;45.00
36652;DHT22;53334;51.976;20.144;2024-03-06T12:54:09;26.10;45.50
36652;DHT22;53334;51.976;20.144;2024-03-06T12:56:42;26.10;46.10
36652;DHT22;53334;51.976;20.144;2024-03-06T12:59:17;26.10;46.60
36652;DHT22;53334;51.976;20.144;2024-03-06T13:01:50;26.20;47.20
36652;DHT22;53334;51.976;20.144;2024-03-06T13:04:23;26.20;47.60
36652;DHT22;53334;51.976;20.144;2024-03-06T13:06:56;26.20;47.90
36652;DHT22;53334;51.976;20.144;2024-03-06T13:09:30;26.20;47.70
36652;DHT22;53334;51.976;20.144;2024-03-06T13:12:04;26.20;47.30
36652;DHT22;53334;51.976;20.144;2024-03-06T13:14:39;26.30;47.30
36652;DHT22;53334;51.976;20.144;2024-03-06T13:17:12;26.30;47.60
36652;DHT22;53334;51.976;20.144;2024-03-06T13:19:46;26.30;48.50
36652;DHT22;53334;51.976;20.144;2024-03-06T13:22:19;26.30;48.30
36652;DHT22;53334;51.976;20.144;2024-03-06T13:24:54;26.30;48.70
36652;DHT22;53334;51.976;20.144;2024-03-06T13:27:28;26.30;48.80
36652;DHT22;53334;51.976;20.144;2024-03-06T13:30:03;26.30;49.50
36652;DHT22;53334;51.976;20.144;2024-03-06T13:32:37;26.30;50.00
36652;DHT22;53334;51.976;20.144;2024-03-06T13:35:11;26.30;50.40
36652;DHT22;53334;51.976;20.144;2024-03-06T13:37:45;26.40;50.80
36652;DHT22;53334;51.976;20.144;2024-03-06T13:40:19;26.40;51.30
36652;DHT22;53334;51.976;20.144;2024-03-06T13:42:52;26.40;50.90
36652;DHT22;53334;51.976;20.144;2024-03-06T13:45:26;26.40;50.70
36652;DHT22;53334;51.976;20.144;2024-03-06T13:48:00;26.40;50.40
36652;DHT22;53334;51.976;20.144;2024-03-06T13:50:34;26.40;50.10
36652;DHT22;53334;51.976;20.144;2024-03-06T13:53:07;26.40;49.80
36652;DHT22;53334;51.976;20.144;2024-03-06T13:55:40;26.40;49.50
36652;DHT22;53334;51.976;20.144;2024-03-06T13:58:14;26.50;49.90
36652;DHT22;53334;51.976;20.144;2024-03-06T14:00:49;26.50;49.10
36652;DHT22;53334;51.976;20.144;2024-03-06T14:03:23;26.40;48.80
36652;DHT22;53334;51.976;20.144;2024-03-06T14:05:56;26.40;48.60
36652;DHT22;53334;51.976;20.144;2024-03-06T14:08:29;26.50;48.40
36652;DHT22;53334;51.976;20.144;2024-03-06T14:11:03;26.40;48.30
36652;DHT22;53334;51.976;20.144;2024-03-06T14:13:39;26.40;48.20
36652;DHT22;53334;51.976;20.144;2024-03-06T14:16:14;26.50;48.10
36652;DHT22;53334;51.976;20.144;2024-03-06T14:18:47;26.40;47.90
36652;DHT22;53334;51.976;20.144;2024-03-06T14:21:20;26.40;47.70
36652;DHT22;53334;51.976;20.144;2024-03-06T14:23:53;26.40;47.60
36652;DHT22;53334;51.976;20.144;2024-03-06T14:26:27;26.40;47.40
36652;DHT22;53334;51.976;20.144;2024-03-06T14:29:00;26.40;47.30
36652;DHT22;53334;51.976;20.144;2024-03-06T14:31:36;26.40;47.20
36652;DHT22;53334;51.976;20.144;2024-03-06T14:34:09;26.40;47.10
36652;DHT22;53334;51.976;20.144;2024-03-06T14:36:43;26.40;47.00
36652;DHT22;53334;51.976;20.144;2024-03-06T14:39:16;26.40;46.80
36652;DHT22;53334;51.976;20.144;2024-03-06T14:41:49;26.40;46.70
36652;DHT22;53334;51.976;20.144;2024-03-06T14:44:23;26.40;46.70
36652;DHT22;53334;51.976;20.144;2024-03-06T14:46:57;26.30;46.60
36652;DHT22;53334;51.976;20.144;2024-03-06T14:49:31;26.30;46.60
36652;DHT22;53334;51.976;20.144;2024-03-06T14:52:04;26.30;46.60
36652;DHT22;53334;51.976;20.144;2024-03-06T14:54:38;26.30;46.60
36652;DHT22;53334;51.976;20.144;2024-03-06T14:57:15;26.30;46.60
36652;DHT22;53334;51.976;20.144;2024-03-06T14:59:49;26.30;46.60
36652;DHT22;53334;51.976;20.144;2024-03-06T15:02:24;26.30;46.70
36652;DHT22;53334;51.976;20.144;2024-03-06T15:04:57;26.30;46.70
36652;DHT22;53334;51.976;20.144;2024-03-06T15:07:31;26.30;46.70
36652;DHT22;53334;51.976;20.144;2024-03-06T15:10:05;26.30;46.70
36652;DHT22;53334;51.976;20.144;2024-03-06T15:12:39;26.30;46.60
36652;DHT22;53334;51.976;20.144;2024-03-06T15:15:14;26.30;46.60
36652;DHT22;53334;51.976;20.144;2024-03-06T15:17:49;26.30;46.60
36652;DHT22;53334;51.976;20.144;2024-03-06T15:20:22;26.30;46.60
36652;DHT22;53334;51.976;20.144;2024-03-06T15:22:56;26.30;46.60
36652;DHT22;53334;51.976;20.144;2024-03-06T15:25:29;26.30;46.50
36652;DHT22;53334;51.976;20.144;2024-03-06T15:28:03;26.20;46.50
36652;DHT22;53334;51.976;20.144;2024-03-06T15:30:36;26.30;46.50
36652;DHT22;53334;51.976;20.144;2024-03-06T15:33:11;26.30;46.40
36652;DHT22;53334;51.976;20.144;2024-03-06T15:35:44;26.30;46.40
36652;DHT22;53334;51.976;20.144;2024-03-06T15:38:18;26.30;46.40
36652;DHT22;53334;51.976;20.144;2024-03-06T15:40:52;26.30;46.50
36652;DHT22;53334;51.976;20.144;2024-03-06T15:43:26;26.30;46.50
36652;DHT22;53334;51.976;20.144;2024-03-06T15:45:59;26.30;46.60
36652;DHT22;53334;51.976;20.144;2024-03-06T15:48:34;26.20;46.70
36652;DHT22;53334;51.976;20.144;2024-03-06T15:51:07;26.30;46.90
36652;DHT22;53334;51.976;20.144;2024-03-06T15:53:40;26.30;47.00
36652;DHT22;53334;51.976;20.144;2024-03-06T15:56:13;26.30;47.10
36652;DHT22;53334;51.976;20.144;2024-03-06T15:58:49;26.30;47.00
36652;DHT22;53334;51.976;20.144;2024-03-06T16:01:22;26.30;46.80
36652;DHT22;53334;51.976;20.144;2024-03-06T16:03:57;26.30;46.70